Fayville, Illinois
Current Conditions -  °F | °C
As of 11:53 PM on Monday 26 Jan 2015 (Local Time) from KCGI Reporting Station
Few Clouds Few Clouds  
Wind Chill: 26°   Ceiling: Unl
Heat Index: 31°   Visibility: 7mi
Dew Point: 29°   Wind: 5mph
Humidity: 92%   Direction: 220°SW
Pressure: 29.91"   Gusts: NA
Location:  37.1947°N, 89.3961°W
Report Text: KCGI 270553Z AUTO 22004KT 7SM FEW055 M01/M02 A2991 RMK AO2 SLP132 T10061017 10022 21017 400441017 58007 TSNO
Loading
Personal Weather Stations






























Interactive Weather Map New forecast layout! Learn more

10-Day Weather Forecast

Advertisements
Track Severe Weather on mobile